sensor_id;sensor_type;location;lat;lon;timestamp;temperature;humidity
72919;SHT30;61063;55.700;26.994;2022-10-16T00:04:03;9.6;83.6
72919;SHT30;61063;55.700;26.994;2022-10-16T00:09:25;9.7;83.5
72919;SHT30;61063;55.700;26.994;2022-10-16T00:14:27;9.6;83.5
72919;SHT30;61063;55.700;26.994;2022-10-16T00:19:27;9.6;83.6
72919;SHT30;61063;55.700;26.994;2022-10-16T00:24:10;9.6;83.6
72919;SHT30;61063;55.700;26.994;2022-10-16T00:29:27;9.6;83.7
72919;SHT30;61063;55.700;26.994;2022-10-16T00:34:21;9.6;83.7
72919;SHT30;61063;55.700;26.994;2022-10-16T00:39:13;9.5;83.7
72919;SHT30;61063;55.700;26.994;2022-10-16T00:44:40;9.6;83.7
72919;SHT30;61063;55.700;26.994;2022-10-16T00:49:08;9.6;83.9
72919;SHT30;61063;55.700;26.994;2022-10-16T00:54:29;9.5;84
72919;SHT30;61063;55.700;26.994;2022-10-16T00:58:57;9.5;84.2
72919;SHT30;61063;55.700;26.994;2022-10-16T01:03:53;9.6;84.3
72919;SHT30;61063;55.700;26.994;2022-10-16T01:09:24;9.7;84.3
72919;SHT30;61063;55.700;26.994;2022-10-16T01:14:18;9.8;84.2
72919;SHT30;61063;55.700;26.994;2022-10-16T01:19:08;9.8;84
72919;SHT30;61063;55.700;26.994;2022-10-16T01:24:11;9.9;83.8
72919;SHT30;61063;55.700;26.994;2022-10-16T01:29:08;9.9;83.6
72919;SHT30;61063;55.700;26.994;2022-10-16T01:33:44;9.9;83.6
72919;SHT30;61063;55.700;26.994;2022-10-16T01:38:58;9.9;83.6
72919;SHT30;61063;55.700;26.994;2022-10-16T01:43:56;9.9;83.4
72919;SHT30;61063;55.700;26.994;2022-10-16T01:48:59;9.8;83.5
72919;SHT30;61063;55.700;26.994;2022-10-16T01:54:17;9.7;83.5
72919;SHT30;61063;55.700;26.994;2022-10-16T01:59:09;9.6;83.8
72919;SHT30;61063;55.700;26.994;2022-10-16T02:04:22;9.5;84.3
72919;SHT30;61063;55.700;26.994;2022-10-16T02:09:11;9.5;84.4
72919;SHT30;61063;55.700;26.994;2022-10-16T02:14:04;9.6;84.6
72919;SHT30;61063;55.700;26.994;2022-10-16T02:19:16;9.6;84.7
72919;SHT30;61063;55.700;26.994;2022-10-16T02:24:26;9.7;84.8
72919;SHT30;61063;55.700;26.994;2022-10-16T02:29:27;9.8;84.6
72919;SHT30;61063;55.700;26.994;2022-10-16T02:33:58;9.8;84.4
72919;SHT30;61063;55.700;26.994;2022-10-16T02:38:55;9.9;84.3
72919;SHT30;61063;55.700;26.994;2022-10-16T02:44:25;10;84.3
72919;SHT30;61063;55.700;26.994;2022-10-16T02:49:19;10;84.3
72919;SHT30;61063;55.700;26.994;2022-10-16T02:54:27;10.1;84.1
72919;SHT30;61063;55.700;26.994;2022-10-16T02:59:07;10.1;84.1
72919;SHT30;61063;55.700;26.994;2022-10-16T03:04:21;10.1;84.1
72919;SHT30;61063;55.700;26.994;2022-10-16T03:09:31;10.2;84.1
72919;SHT30;61063;55.700;26.994;2022-10-16T03:14:07;10.2;83.9
72919;SHT30;61063;55.700;26.994;2022-10-16T03:19:31;10.2;83.7
72919;SHT30;61063;55.700;26.994;2022-10-16T03:23:57;10.3;83.6
72919;SHT30;61063;55.700;26.994;2022-10-16T03:29:09;10.3;83.5
72919;SHT30;61063;55.700;26.994;2022-10-16T03:34:09;10.3;83.6
72919;SHT30;61063;55.700;26.994;2022-10-16T03:39:07;10.3;83.7
72919;SHT30;61063;55.700;26.994;2022-10-16T03:44:31;10.4;83.7
72919;SHT30;61063;55.700;26.994;2022-10-16T03:49:31;10.4;83.6
72919;SHT30;61063;55.700;26.994;2022-10-16T03:54:33;10.5;83.5
72919;SHT30;61063;55.700;26.994;2022-10-16T03:59:33;10.6;83.5
72919;SHT30;61063;55.700;26.994;2022-10-16T04:04:31;10.6;83.5
72919;SHT30;61063;55.700;26.994;2022-10-16T04:09:29;10.6;83.5
72919;SHT30;61063;55.700;26.994;2022-10-16T04:14:31;10.7;83.4
72919;SHT30;61063;55.700;26.994;2022-10-16T04:19:33;10.7;83.4
72919;SHT30;61063;55.700;26.994;2022-10-16T04:24:33;10.7;83.4
72919;SHT30;61063;55.700;26.994;2022-10-16T04:29:21;10.7;83.5
72919;SHT30;61063;55.700;26.994;2022-10-16T04:34:11;10.7;83.4
72919;SHT30;61063;55.700;26.994;2022-10-16T04:39:23;10.8;83.5
72919;SHT30;61063;55.700;26.994;2022-10-16T04:44:19;10.8;83.6
72919;SHT30;61063;55.700;26.994;2022-10-16T04:49:09;10.8;83.7
72919;SHT30;61063;55.700;26.994;2022-10-16T04:54:19;10.8;84
72919;SHT30;61063;55.700;26.994;2022-10-16T04:59:33;10.8;84.2
72919;SHT30;61063;55.700;26.994;2022-10-16T05:03:45;10.8;84.4
72919;SHT30;61063;55.700;26.994;2022-10-16T05:09:09;10.7;84.5
72919;SHT30;61063;55.700;26.994;2022-10-16T05:14:33;10.7;84.7
72919;SHT30;61063;55.700;26.994;2022-10-16T05:19:23;10.8;84.9
72919;SHT30;61063;55.700;26.994;2022-10-16T05:24:33;10.8;84.9
72919;SHT30;61063;55.700;26.994;2022-10-16T05:29:09;10.8;84.9
72919;SHT30;61063;55.700;26.994;2022-10-16T05:34:23;10.8;85
72919;SHT30;61063;55.700;26.994;2022-10-16T05:39:33;10.9;84.9
72919;SHT30;61063;55.700;26.994;2022-10-16T05:44:21;10.9;84.9
72919;SHT30;61063;55.700;26.994;2022-10-16T05:48:53;10.9;84.7
72919;SHT30;61063;55.700;26.994;2022-10-16T05:53:59;10.9;84.6
72919;SHT30;61063;55.700;26.994;2022-10-16T05:59:02;11;84.3
72919;SHT30;61063;55.700;26.994;2022-10-16T06:04:11;11.1;84.2
72919;SHT30;61063;55.700;26.994;2022-10-16T06:09:08;11.1;84
72919;SHT30;61063;55.700;26.994;2022-10-16T06:14:33;11.2;83.8
72919;SHT30;61063;55.700;26.994;2022-10-16T06:19:33;11.3;83.6
72919;SHT30;61063;55.700;26.994;2022-10-16T06:24:10;11.3;83.2
72919;SHT30;61063;55.700;26.994;2022-10-16T06:29:33;11.3;83.3
72919;SHT30;61063;55.700;26.994;2022-10-16T06:34:31;11.4;83
72919;SHT30;61063;55.700;26.994;2022-10-16T06:39:33;11.5;82.8
72919;SHT30;61063;55.700;26.994;2022-10-16T06:43:59;11.5;82.5
72919;SHT30;61063;55.700;26.994;2022-10-16T06:49:33;11.6;82.7
72919;SHT30;61063;55.700;26.994;2022-10-16T06:54:27;11.5;82.7
72919;SHT30;61063;55.700;26.994;2022-10-16T06:59:21;11.5;82.9
72919;SHT30;61063;55.700;26.994;2022-10-16T07:04:21;11.5;82.7
72919;SHT30;61063;55.700;26.994;2022-10-16T07:09:24;11.5;82.7
72919;SHT30;61063;55.700;26.994;2022-10-16T07:14:20;11.6;82.7
72919;SHT30;61063;55.700;26.994;2022-10-16T07:19:21;11.7;82.4
72919;SHT30;61063;55.700;26.994;2022-10-16T07:24:19;11.8;81.9
72919;SHT30;61063;55.700;26.994;2022-10-16T07:29:31;12;81.7
72919;SHT30;61063;55.700;26.994;2022-10-16T07:34:33;12;81.4
72919;SHT30;61063;55.700;26.994;2022-10-16T07:38:59;12.1;81.3
72919;SHT30;61063;55.700;26.994;2022-10-16T07:43:59;12.2;80.8
72919;SHT30;61063;55.700;26.994;2022-10-16T07:49:31;12.3;80.4
72919;SHT30;61063;55.700;26.994;2022-10-16T07:54:33;12.5;80
72919;SHT30;61063;55.700;26.994;2022-10-16T07:59:10;12.7;79.7
72919;SHT30;61063;55.700;26.994;2022-10-16T08:04:33;12.9;79.1
72919;SHT30;61063;55.700;26.994;2022-10-16T08:09:21;13.1;78.5
72919;SHT30;61063;55.700;26.994;2022-10-16T08:14:01;13.3;78
72919;SHT30;61063;55.700;26.994;2022-10-16T08:19:11;13.5;77.4
72919;SHT30;61063;55.700;26.994;2022-10-16T08:24:01;13.5;76.9
72919;SHT30;61063;55.700;26.994;2022-10-16T08:28:57;13.4;76.7
72919;SHT30;61063;55.700;26.994;2022-10-16T08:34:21;13.4;76.4
72919;SHT30;61063;55.700;26.994;2022-10-16T08:39:33;13.3;76.5
72919;SHT30;61063;55.700;26.994;2022-10-16T08:44:27;13.2;76.7
72919;SHT30;61063;55.700;26.994;2022-10-16T08:49:33;13.3;76.5
72919;SHT30;61063;55.700;26.994;2022-10-16T08:54:34;13.5;75.9
72919;SHT30;61063;55.700;26.994;2022-10-16T08:59:11;13.5;75.7
72919;SHT30;61063;55.700;26.994;2022-10-16T09:04:39;13.7;75.4
72919;SHT30;61063;55.700;26.994;2022-10-16T09:09:39;13.9;75.1
72919;SHT30;61063;55.700;26.994;2022-10-16T09:14:40;13.9;74.3
72919;SHT30;61063;55.700;26.994;2022-10-16T09:19:37;14;74
72919;SHT30;61063;55.700;26.994;2022-10-16T09:24:35;14.1;73.9
72919;SHT30;61063;55.700;26.994;2022-10-16T09:29:24;14.3;73.6
72919;SHT30;61063;55.700;26.994;2022-10-16T09:34:14;14.4;73.4
72919;SHT30;61063;55.700;26.994;2022-10-16T09:39:15;14.5;72.9
72919;SHT30;61063;55.700;26.994;2022-10-16T09:44:23;14.6;73
72919;SHT30;61063;55.700;26.994;2022-10-16T09:49:22;14.7;72.5
72919;SHT30;61063;55.700;26.994;2022-10-16T09:54:23;14.7;72.3
72919;SHT30;61063;55.700;26.994;2022-10-16T09:59:45;14.8;72.1
72919;SHT30;61063;55.700;26.994;2022-10-16T10:04:37;14.8;72.1
72919;SHT30;61063;55.700;26.994;2022-10-16T10:09:37;14.9;72.2
72919;SHT30;61063;55.700;26.994;2022-10-16T10:14:04;14.9;72.1
72919;SHT30;61063;55.700;26.994;2022-10-16T10:19:37;15;72.1
72919;SHT30;61063;55.700;26.994;2022-10-16T10:24:37;15.1;71.8
72919;SHT30;61063;55.700;26.994;2022-10-16T10:29:15;15;71.4
72919;SHT30;61063;55.700;26.994;2022-10-16T10:34:39;15;71.7
72919;SHT30;61063;55.700;26.994;2022-10-16T10:39:25;15;71.6
72919;SHT30;61063;55.700;26.994;2022-10-16T10:44:03;14.9;71.5
72919;SHT30;61063;55.700;26.994;2022-10-16T10:49:16;14.8;71.4
72919;SHT30;61063;55.700;26.994;2022-10-16T10:54:14;14.7;71.6
72919;SHT30;61063;55.700;26.994;2022-10-16T10:59:05;14.9;71.7
72919;SHT30;61063;55.700;26.994;2022-10-16T11:04:34;15;71.1
72919;SHT30;61063;55.700;26.994;2022-10-16T11:09:36;15;71.5
72919;SHT30;61063;55.700;26.994;2022-10-16T11:14:34;14.9;71.7
72919;SHT30;61063;55.700;26.994;2022-10-16T11:19:39;14.8;72.2
72919;SHT30;61063;55.700;26.994;2022-10-16T11:24:14;14.8;72.3
72919;SHT30;61063;55.700;26.994;2022-10-16T11:29:15;14.9;72.1
72919;SHT30;61063;55.700;26.994;2022-10-16T11:34:37;15;71.9
72919;SHT30;61063;55.700;26.994;2022-10-16T11:39:34;14.9;71.7
72919;SHT30;61063;55.700;26.994;2022-10-16T11:44:06;14.7;72.6
72919;SHT30;61063;55.700;26.994;2022-10-16T11:49:03;14.6;73.4
72919;SHT30;61063;55.700;26.994;2022-10-16T11:54:03;14.3;74.8
72919;SHT30;61063;55.700;26.994;2022-10-16T11:59:25;14.1;76.5
72919;SHT30;61063;55.700;26.994;2022-10-16T12:04:25;14;77.4
72919;SHT30;61063;55.700;26.994;2022-10-16T12:09:11;14;77.5
72919;SHT30;61063;55.700;26.994;2022-10-16T12:14:37;14.1;77.2
72919;SHT30;61063;55.700;26.994;2022-10-16T12:19:26;14;77.5
72919;SHT30;61063;55.700;26.994;2022-10-16T12:23:56;13.9;78
72919;SHT30;61063;55.700;26.994;2022-10-16T12:29:28;13.8;78.3
72919;SHT30;61063;55.700;26.994;2022-10-16T12:34:37;13.7;78.5
72919;SHT30;61063;55.700;26.994;2022-10-16T12:39:38;13.7;78.6
72919;SHT30;61063;55.700;26.994;2022-10-16T12:44:00;13.7;78.7
72919;SHT30;61063;55.700;26.994;2022-10-16T12:49:34;13.6;78.7
72919;SHT30;61063;55.700;26.994;2022-10-16T12:54:27;13.6;78.8
72919;SHT30;61063;55.700;26.994;2022-10-16T12:59:35;13.6;79.1
72919;SHT30;61063;55.700;26.994;2022-10-16T13:04:15;13.8;79.2
72919;SHT30;61063;55.700;26.994;2022-10-16T13:09:34;13.9;78.4
72919;SHT30;61063;55.700;26.994;2022-10-16T13:14:35;14;77.9
72919;SHT30;61063;55.700;26.994;2022-10-16T13:19:10;14.2;77.5
72919;SHT30;61063;55.700;26.994;2022-10-16T13:23:55;14.4;76.7
72919;SHT30;61063;55.700;26.994;2022-10-16T13:29:12;14.5;76.6
72919;SHT30;61063;55.700;26.994;2022-10-16T13:34:24;14.5;76
72919;SHT30;61063;55.700;26.994;2022-10-16T13:39:14;14.3;76.5
72919;SHT30;61063;55.700;26.994;2022-10-16T13:43:58;14.3;76.7
72919;SHT30;61063;55.700;26.994;2022-10-16T13:49:38;14.3;76.3
72919;SHT30;61063;55.700;26.994;2022-10-16T13:54:38;14.3;76.1
72919;SHT30;61063;55.700;26.994;2022-10-16T13:59:23;14.3;76.2
72919;SHT30;61063;55.700;26.994;2022-10-16T14:04:34;14.3;76.1
72919;SHT30;61063;55.700;26.994;2022-10-16T14:09:38;14.3;75.8
72919;SHT30;61063;55.700;26.994;2022-10-16T14:14:40;14.2;75.8
72919;SHT30;61063;55.700;26.994;2022-10-16T14:19:02;14.2;75.8
72919;SHT30;61063;55.700;26.994;2022-10-16T14:24:24;14.3;75.7
72919;SHT30;61063;55.700;26.994;2022-10-16T14:29:34;14.2;75.8
72919;SHT30;61063;55.700;26.994;2022-10-16T14:34:23;14.1;75.9
72919;SHT30;61063;55.700;26.994;2022-10-16T14:39:16;14;75.9
72919;SHT30;61063;55.700;26.994;2022-10-16T14:44:28;13.9;76.1
72919;SHT30;61063;55.700;26.994;2022-10-16T14:49:24;13.7;76.4
72919;SHT30;61063;55.700;26.994;2022-10-16T14:54:38;13.6;76.7
72919;SHT30;61063;55.700;26.994;2022-10-16T14:59:24;13.5;76.9
72919;SHT30;61063;55.700;26.994;2022-10-16T15:04:38;13.5;77
72919;SHT30;61063;55.700;26.994;2022-10-16T15:09:02;13.4;77
72919;SHT30;61063;55.700;26.994;2022-10-16T15:14:02;13.4;77.1
72919;SHT30;61063;55.700;26.994;2022-10-16T15:19:38;13.3;77.2
72919;SHT30;61063;55.700;26.994;2022-10-16T15:24:28;13.2;77.2
72919;SHT30;61063;55.700;26.994;2022-10-16T15:29:36;13.1;77.3
72919;SHT30;61063;55.700;26.994;2022-10-16T15:34:24;13.1;77.5
72919;SHT30;61063;55.700;26.994;2022-10-16T15:39:26;13;77.5
72919;SHT30;61063;55.700;26.994;2022-10-16T15:44:36;13;77.5
72919;SHT30;61063;55.700;26.994;2022-10-16T15:49:12;13;77.4
72919;SHT30;61063;55.700;26.994;2022-10-16T15:54:12;13;77.4
72919;SHT30;61063;55.700;26.994;2022-10-16T15:59:02;13;77.4
72919;SHT30;61063;55.700;26.994;2022-10-16T16:04:04;13;77.3
72919;SHT30;61063;55.700;26.994;2022-10-16T16:08:58;13.1;77.1
72919;SHT30;61063;55.700;26.994;2022-10-16T16:14:12;13.1;76.9
72919;SHT30;61063;55.700;26.994;2022-10-16T16:19:36;13.1;76.8
72919;SHT30;61063;55.700;26.994;2022-10-16T16:24:34;13.1;76.8
72919;SHT30;61063;55.700;26.994;2022-10-16T16:29:10;13.2;76.5
72919;SHT30;61063;55.700;26.994;2022-10-16T16:34:36;13.2;76.4
72919;SHT30;61063;55.700;26.994;2022-10-16T16:39:24;13.3;76.2
72919;SHT30;61063;55.700;26.994;2022-10-16T16:44:34;13.3;76.1
72919;SHT30;61063;55.700;26.994;2022-10-16T16:48:58;13.3;75.9
72919;SHT30;61063;55.700;26.994;2022-10-16T16:54:24;13.4;75.8
72919;SHT30;61063;55.700;26.994;2022-10-16T16:59:02;13.4;75.6
72919;SHT30;61063;55.700;26.994;2022-10-16T17:04:22;13.4;75.7
72919;SHT30;61063;55.700;26.994;2022-10-16T17:09:10;13.4;75.7
72919;SHT30;61063;55.700;26.994;2022-10-16T17:14:26;13.4;75.8
72919;SHT30;61063;55.700;26.994;2022-10-16T17:19:20;13.3;76.8
72919;SHT30;61063;55.700;26.994;2022-10-16T17:24:20;13.2;78.8
72919;SHT30;61063;55.700;26.994;2022-10-16T17:29:22;13;79.9
72919;SHT30;61063;55.700;26.994;2022-10-16T17:34:34;12.8;80.4
72919;SHT30;61063;55.700;26.994;2022-10-16T17:39:02;12.8;80.5
72919;SHT30;61063;55.700;26.994;2022-10-16T17:44:34;12.8;80.9
72919;SHT30;61063;55.700;26.994;2022-10-16T17:49:34;12.7;81.8
72919;SHT30;61063;55.700;26.994;2022-10-16T17:54:30;12.6;82.7
72919;SHT30;61063;55.700;26.994;2022-10-16T17:59:34;12.5;83.7
72919;SHT30;61063;55.700;26.994;2022-10-16T18:04:12;12.4;84.6
72919;SHT30;61063;55.700;26.994;2022-10-16T18:09:32;12.3;85.3
72919;SHT30;61063;55.700;26.994;2022-10-16T18:14:22;12.2;85.9
72919;SHT30;61063;55.700;26.994;2022-10-16T18:19:12;12.2;86.3
72919;SHT30;61063;55.700;26.994;2022-10-16T18:24:02;12.2;86.2
72919;SHT30;61063;55.700;26.994;2022-10-16T18:29:02;12.3;86.1
72919;SHT30;61063;55.700;26.994;2022-10-16T18:34:04;12.3;86
72919;SHT30;61063;55.700;26.994;2022-10-16T18:38:48;12.3;86.1
72919;SHT30;61063;55.700;26.994;2022-10-16T18:44:02;12.3;86.2
72919;SHT30;61063;55.700;26.994;2022-10-16T18:49:36;12.3;86.1
72919;SHT30;61063;55.700;26.994;2022-10-16T18:54:24;12.3;86.2
72919;SHT30;61063;55.700;26.994;2022-10-16T18:59:12;12.3;86.1
72919;SHT30;61063;55.700;26.994;2022-10-16T19:04:12;12.3;86.2
72919;SHT30;61063;55.700;26.994;2022-10-16T19:09:22;12.3;86.2
72919;SHT30;61063;55.700;26.994;2022-10-16T19:14:32;12.4;85.9
72919;SHT30;61063;55.700;26.994;2022-10-16T19:19:03;12.4;85.8
72919;SHT30;61063;55.700;26.994;2022-10-16T19:24:02;12.4;85.8
72919;SHT30;61063;55.700;26.994;2022-10-16T19:29:12;12.5;85.6
72919;SHT30;61063;55.700;26.994;2022-10-16T19:34:26;12.5;85.3
72919;SHT30;61063;55.700;26.994;2022-10-16T19:39:10;12.6;85.1
72919;SHT30;61063;55.700;26.994;2022-10-16T19:44:32;12.6;84.8
72919;SHT30;61063;55.700;26.994;2022-10-16T19:49:22;12.7;84.9
72919;SHT30;61063;55.700;26.994;2022-10-16T19:54:24;12.7;85.1
72919;SHT30;61063;55.700;26.994;2022-10-16T19:59:10;12.8;84.8
72919;SHT30;61063;55.700;26.994;2022-10-16T20:04:36;12.8;84.5
72919;SHT30;61063;55.700;26.994;2022-10-16T20:09:00;12.8;84.4
72919;SHT30;61063;55.700;26.994;2022-10-16T20:14:36;12.9;84.4
72919;SHT30;61063;55.700;26.994;2022-10-16T20:19:02;12.9;84.4
72919;SHT30;61063;55.700;26.994;2022-10-16T20:24:34;13;84.4
72919;SHT30;61063;55.700;26.994;2022-10-16T20:29:32;13;84.4
72919;SHT30;61063;55.700;26.994;2022-10-16T20:34:12;13;84.4
72919;SHT30;61063;55.700;26.994;2022-10-16T20:39:38;13.1;84.3
72919;SHT30;61063;55.700;26.994;2022-10-16T20:44:24;13.2;84.4
72919;SHT30;61063;55.700;26.994;2022-10-16T20:49:14;13.2;84.6
72919;SHT30;61063;55.700;26.994;2022-10-16T20:54:14;13.2;84.7
72919;SHT30;61063;55.700;26.994;2022-10-16T20:59:02;13.3;84.8
72919;SHT30;61063;55.700;26.994;2022-10-16T21:04:38;13.3;84.9
72919;SHT30;61063;55.700;26.994;2022-10-16T21:09:38;13.3;84.8
72919;SHT30;61063;55.700;26.994;2022-10-16T21:14:14;13.3;84.9
72919;SHT30;61063;55.700;26.994;2022-10-16T21:18:48;13.3;85
72919;SHT30;61063;55.700;26.994;2022-10-16T21:24:36;13.4;85
72919;SHT30;61063;55.700;26.994;2022-10-16T21:29:22;13.4;85.1
72919;SHT30;61063;55.700;26.994;2022-10-16T21:34:10;13.4;85.4
72919;SHT30;61063;55.700;26.994;2022-10-16T21:39:36;13.3;85.7
72919;SHT30;61063;55.700;26.994;2022-10-16T21:44:24;13.3;85.9
72919;SHT30;61063;55.700;26.994;2022-10-16T21:49:38;13.3;86.1
72919;SHT30;61063;55.700;26.994;2022-10-16T21:54:02;13.3;86.2
72919;SHT30;61063;55.700;26.994;2022-10-16T21:59:00;13.2;86.3
72919;SHT30;61063;55.700;26.994;2022-10-16T22:04:36;13.3;86.5
72919;SHT30;61063;55.700;26.994;2022-10-16T22:09:24;13.3;86.6
72919;SHT30;61063;55.700;26.994;2022-10-16T22:14:10;13.3;86.6
72919;SHT30;61063;55.700;26.994;2022-10-16T22:19:17;13.2;86.6
72919;SHT30;61063;55.700;26.994;2022-10-16T22:24:38;13.2;86.6
72919;SHT30;61063;55.700;26.994;2022-10-16T22:29:02;13.2;86.8
72919;SHT30;61063;55.700;26.994;2022-10-16T22:34:24;13.2;86.8
72919;SHT30;61063;55.700;26.994;2022-10-16T22:39:30;13.2;86.7
72919;SHT30;61063;55.700;26.994;2022-10-16T22:44:02;13.2;86.7
72919;SHT30;61063;55.700;26.994;2022-10-16T22:49:02;13.3;86.6
72919;SHT30;61063;55.700;26.994;2022-10-16T22:54:36;13.3;86.6
72919;SHT30;61063;55.700;26.994;2022-10-16T22:59:24;13.3;86.7
72919;SHT30;61063;55.700;26.994;2022-10-16T23:04:32;13.3;86.6
72919;SHT30;61063;55.700;26.994;2022-10-16T23:09:12;13.3;86.5
72919;SHT30;61063;55.700;26.994;2022-10-16T23:14:24;13.3;86.5
72919;SHT30;61063;55.700;26.994;2022-10-16T23:19:34;13.3;86.7
72919;SHT30;61063;55.700;26.994;2022-10-16T23:24:30;13.3;86.7
72919;SHT30;61063;55.700;26.994;2022-10-16T23:28:55;13.4;86.7
72919;SHT30;61063;55.700;26.994;2022-10-16T23:34:28;13.4;86.7
72919;SHT30;61063;55.700;26.994;2022-10-16T23:39:12;13.4;86.6
72919;SHT30;61063;55.700;26.994;2022-10-16T23:44:10;13.3;86.7
72919;SHT30;61063;55.700;26.994;2022-10-16T23:49:12;13.3;87
72919;SHT30;61063;55.700;26.994;2022-10-16T23:54:30;13.3;87.1
72919;SHT30;61063;55.700;26.994;2022-10-16T23:59:30;13.3;87.2
